createdAt,value
2017-11-16T00:01:05.550Z,8.30
2017-11-16T00:03:33.125Z,8.30
2017-11-16T00:06:00.673Z,8.30
2017-11-16T00:08:28.236Z,8.30
2017-11-16T00:10:55.760Z,8.30
2017-11-16T00:13:23.305Z,8.30
2017-11-16T00:15:51.650Z,8.30
2017-11-16T00:18:19.203Z,8.30
2017-11-16T00:20:46.778Z,8.30
2017-11-16T00:23:15.105Z,8.30
2017-11-16T00:25:42.648Z,8.30
2017-11-16T00:28:10.225Z,8.40
2017-11-16T00:30:37.779Z,8.40
2017-11-16T00:33:05.366Z,8.40
2017-11-16T00:35:32.906Z,8.40
2017-11-16T00:38:00.446Z,8.40
2017-11-16T00:40:28.026Z,8.40
2017-11-16T00:42:55.560Z,8.30
2017-11-16T00:45:23.183Z,8.30
2017-11-16T00:47:50.746Z,8.30
2017-11-16T00:50:18.348Z,8.40
2017-11-16T00:52:45.906Z,8.40
2017-11-16T00:55:13.448Z,8.40
2017-11-16T00:57:41.760Z,8.30
2017-11-16T01:00:09.302Z,8.30
2017-11-16T01:02:36.861Z,8.30
2017-11-16T01:05:04.410Z,8.30
2017-11-16T01:07:31.949Z,8.40
2017-11-16T01:10:00.275Z,8.40
2017-11-16T01:12:27.819Z,8.30
2017-11-16T01:14:55.405Z,8.40
2017-11-16T01:17:22.933Z,8.40
2017-11-16T01:19:50.474Z,8.40
2017-11-16T01:22:18.780Z,8.50
2017-11-16T01:24:46.337Z,8.50
2017-11-16T01:27:13.883Z,8.50
2017-11-16T01:29:41.438Z,8.50
2017-11-16T01:32:09.026Z,8.50
2017-11-16T01:34:36.570Z,8.50
2017-11-16T01:37:04.130Z,8.50
2017-11-16T01:39:31.674Z,8.50
2017-11-16T01:41:59.255Z,8.50
2017-11-16T01:44:26.780Z,8.40
2017-11-16T01:46:55.095Z,8.40
2017-11-16T01:49:22.650Z,8.40
2017-11-16T01:51:50.267Z,8.40
2017-11-16T01:54:18.722Z,8.30
2017-11-16T01:56:46.265Z,8.30
2017-11-16T01:59:13.820Z,8.30
2017-11-16T02:01:41.353Z,8.30
2017-11-16T02:04:08.917Z,8.20
2017-11-16T02:06:36.458Z,8.20
2017-11-16T02:09:04.776Z,8.20
2017-11-16T02:11:32.315Z,8.20
2017-11-16T02:13:59.862Z,8.20
2017-11-16T02:16:27.424Z,8.20
2017-11-16T02:18:54.953Z,8.10
2017-11-16T02:21:23.296Z,8.10
2017-11-16T02:23:50.846Z,8.10
2017-11-16T02:26:18.421Z,8.10
2017-11-16T02:28:45.989Z,8.00
2017-11-16T02:31:13.545Z,8.00
2017-11-16T02:33:41.685Z,7.90
2017-11-16T02:36:09.261Z,7.90
2017-11-16T02:38:36.841Z,7.80
2017-11-16T02:41:04.607Z,7.70
2017-11-16T02:43:32.231Z,7.60
2017-11-16T02:46:01.562Z,7.60
2017-11-16T02:48:29.123Z,7.40
2017-11-16T02:50:56.649Z,7.30
2017-11-16T02:53:24.231Z,7.30
2017-11-16T02:55:51.769Z,7.20
2017-11-16T02:58:19.342Z,7.10
2017-11-16T03:00:46.887Z,7.00
2017-11-16T03:03:14.435Z,7.00
2017-11-16T03:05:42.005Z,6.90
2017-11-16T03:08:09.544Z,6.80
2017-11-16T03:10:37.106Z,6.70
2017-11-16T03:13:04.665Z,6.60
2017-11-16T03:15:32.267Z,6.50
2017-11-16T03:17:59.832Z,6.40
2017-11-16T03:20:27.372Z,6.40
2017-11-16T03:22:54.938Z,6.40
2017-11-16T03:25:22.488Z,6.50
2017-11-16T03:27:50.062Z,6.50
2017-11-16T03:30:18.369Z,6.50
2017-11-16T03:32:46.670Z,6.40
2017-11-16T03:35:14.247Z,6.40
2017-11-16T03:37:41.798Z,6.40
2017-11-16T03:40:09.378Z,6.50
2017-11-16T03:42:36.920Z,6.50
2017-11-16T03:45:04.471Z,6.40
2017-11-16T03:47:32.053Z,6.40
2017-11-16T03:49:59.607Z,6.40
2017-11-16T03:52:27.176Z,6.40
2017-11-16T03:54:54.764Z,6.40
2017-11-16T03:57:23.107Z,6.50
2017-11-16T03:59:50.651Z,6.40
2017-11-16T04:02:18.247Z,6.50
2017-11-16T04:04:45.843Z,6.50
2017-11-16T04:07:13.424Z,6.50
2017-11-16T04:09:41.081Z,6.50
2017-11-16T04:12:08.652Z,6.60
2017-11-16T04:14:36.215Z,6.60
2017-11-16T04:17:03.792Z,6.60
2017-11-16T04:19:31.354Z,6.60
2017-11-16T04:21:58.940Z,6.70
2017-11-16T04:24:26.472Z,6.70
2017-11-16T04:26:54.033Z,6.80
2017-11-16T04:29:21.588Z,6.80
2017-11-16T04:31:49.135Z,6.80
2017-11-16T04:34:16.692Z,6.80
2017-11-16T04:36:44.248Z,6.90
2017-11-16T04:39:11.799Z,6.90
2017-11-16T04:41:39.375Z,6.90
2017-11-16T04:44:06.927Z,7.00
2017-11-16T04:46:34.472Z,7.00
2017-11-16T04:49:02.012Z,7.00
2017-11-16T04:51:29.608Z,7.00
2017-11-16T04:53:57.185Z,7.00
2017-11-16T04:56:24.740Z,6.90
2017-11-16T04:58:52.325Z,6.90
2017-11-16T05:01:20.642Z,6.90
2017-11-16T05:03:48.215Z,6.90
2017-11-16T05:06:15.762Z,6.80
2017-11-16T05:08:43.331Z,6.80
2017-11-16T05:11:10.869Z,6.80
2017-11-16T05:13:38.461Z,6.70
2017-11-16T05:16:06.000Z,6.70
2017-11-16T05:18:33.547Z,6.70
2017-11-16T05:21:01.131Z,6.70
2017-11-16T05:23:28.742Z,6.70
2017-11-16T05:25:57.104Z,6.70
2017-11-16T05:28:24.655Z,6.70
2017-11-16T05:30:52.222Z,6.70
2017-11-16T05:33:19.805Z,6.70
2017-11-16T05:35:48.104Z,6.70
2017-11-16T05:38:15.672Z,6.70
2017-11-16T05:40:43.230Z,6.70
2017-11-16T05:43:10.794Z,6.70
2017-11-16T05:45:38.362Z,6.70
2017-11-16T05:48:05.929Z,6.80
2017-11-16T05:50:33.491Z,6.80
2017-11-16T05:53:01.066Z,6.80
2017-11-16T05:55:28.646Z,6.80
2017-11-16T05:57:57.086Z,6.80
2017-11-16T06:00:24.648Z,6.80
2017-11-16T06:02:52.199Z,6.90
2017-11-16T06:05:19.747Z,6.90
2017-11-16T06:07:47.299Z,6.90
2017-11-16T06:10:14.843Z,6.90
2017-11-16T06:12:42.428Z,6.90
2017-11-16T06:15:09.969Z,6.90
2017-11-16T06:17:37.543Z,6.90
2017-11-16T06:20:05.081Z,7.00
2017-11-16T06:22:33.391Z,7.00
2017-11-16T06:25:00.977Z,7.00
2017-11-16T06:27:28.513Z,7.00
2017-11-16T06:29:56.044Z,7.00
2017-11-16T06:32:23.608Z,7.00
2017-11-16T06:34:51.169Z,6.90
2017-11-16T06:37:18.709Z,6.90
2017-11-16T06:39:47.034Z,6.80
2017-11-16T06:42:14.573Z,6.80
2017-11-16T06:44:42.139Z,6.80
2017-11-16T06:47:09.705Z,6.70
2017-11-16T06:49:37.240Z,6.60
2017-11-16T06:52:04.822Z,6.60
2017-11-16T06:54:32.389Z,6.60
2017-11-16T06:56:59.935Z,6.60
2017-11-16T06:59:27.516Z,6.50
2017-11-16T07:01:55.072Z,6.50
2017-11-16T07:04:22.646Z,6.60
2017-11-16T07:06:50.222Z,6.50
2017-11-16T07:09:17.790Z,6.50
2017-11-16T07:11:46.108Z,6.40
2017-11-16T07:14:13.685Z,6.40
2017-11-16T07:16:41.239Z,6.40
2017-11-16T07:19:08.811Z,6.40
2017-11-16T07:21:36.355Z,6.40
2017-11-16T07:24:03.927Z,6.40
2017-11-16T07:26:31.456Z,6.30
2017-11-16T07:28:59.027Z,6.40
2017-11-16T07:31:26.556Z,6.50
2017-11-16T07:33:54.107Z,6.50
2017-11-16T07:36:22.421Z,6.60
2017-11-16T07:38:49.985Z,6.60
2017-11-16T07:41:17.563Z,6.60
2017-11-16T07:43:45.323Z,6.70
2017-11-16T07:46:12.878Z,6.80
2017-11-16T07:48:40.438Z,6.90
2017-11-16T07:51:07.978Z,7.00
2017-11-16T07:53:35.560Z,7.20
2017-11-16T07:56:03.130Z,7.20
2017-11-16T07:58:32.221Z,7.40
2017-11-16T08:00:59.753Z,7.40
2017-11-16T08:03:27.298Z,7.50
2017-11-16T08:05:54.868Z,7.70
2017-11-16T08:08:22.421Z,7.80
2017-11-16T08:10:49.990Z,7.80
2017-11-16T08:13:17.534Z,7.80
2017-11-16T08:15:45.106Z,7.80
2017-11-16T08:18:12.641Z,7.90
2017-11-16T08:20:40.197Z,8.10
2017-11-16T08:23:07.767Z,8.10
2017-11-16T08:25:35.319Z,8.10
2017-11-16T08:28:02.922Z,8.00
2017-11-16T08:30:30.478Z,8.10
2017-11-16T08:32:58.051Z,8.20
2017-11-16T08:35:26.378Z,8.50
2017-11-16T08:37:53.912Z,8.50
2017-11-16T08:40:22.246Z,8.70
2017-11-16T08:42:49.897Z,8.70
2017-11-16T08:45:17.480Z,8.60
2017-11-16T08:47:45.021Z,8.60
2017-11-16T08:50:12.552Z,8.70
2017-11-16T08:52:40.133Z,8.70
2017-11-16T08:55:07.694Z,8.90
2017-11-16T08:57:35.267Z,9.00
2017-11-16T09:00:02.816Z,8.80
2017-11-16T09:02:30.509Z,9.00
2017-11-16T09:04:58.057Z,9.20
2017-11-16T09:07:25.597Z,9.30
2017-11-16T09:09:53.280Z,9.40
2017-11-16T09:12:20.840Z,9.30
2017-11-16T09:14:48.391Z,9.40
2017-11-16T09:17:15.959Z,9.40
2017-11-16T09:19:43.535Z,9.40
2017-11-16T09:22:11.114Z,9.20
2017-11-16T09:24:39.428Z,9.00
2017-11-16T09:27:06.999Z,9.00
2017-11-16T09:29:34.566Z,8.70
2017-11-16T09:32:02.126Z,8.80
2017-11-16T09:34:29.684Z,8.70
2017-11-16T09:36:57.231Z,8.80
2017-11-16T09:39:24.787Z,8.80
2017-11-16T09:41:52.320Z,8.90
2017-11-16T09:44:19.871Z,9.00
2017-11-16T09:46:47.458Z,9.00
2017-11-16T09:49:14.996Z,9.00
2017-11-16T09:51:42.566Z,8.90
2017-11-16T09:54:10.129Z,9.00
2017-11-16T09:56:37.699Z,9.00
2017-11-16T09:59:05.253Z,9.00
2017-11-16T10:01:32.798Z,9.00
2017-11-16T10:04:00.348Z,9.00
2017-11-16T10:06:27.891Z,9.10
2017-11-16T10:08:56.208Z,9.20
2017-11-16T10:11:23.754Z,9.20
2017-11-16T10:13:51.328Z,9.10
2017-11-16T10:16:18.893Z,9.10
2017-11-16T10:18:46.424Z,9.20
2017-11-16T10:21:14.005Z,9.10
2017-11-16T10:23:41.555Z,9.20
2017-11-16T10:26:09.101Z,9.30
2017-11-16T10:28:36.648Z,9.30
2017-11-16T10:31:04.964Z,9.50
2017-11-16T10:33:32.537Z,9.50
2017-11-16T10:36:00.136Z,9.70
2017-11-16T10:38:28.453Z,9.60
2017-11-16T10:40:56.003Z,9.50
2017-11-16T10:43:23.593Z,9.40
2017-11-16T10:45:51.125Z,9.50
2017-11-16T10:48:18.725Z,9.50
2017-11-16T10:50:46.285Z,9.70
2017-11-16T10:53:13.839Z,9.80
2017-11-16T10:55:41.408Z,10.10
2017-11-16T10:58:08.963Z,10.40
2017-11-16T11:00:36.553Z,10.50
2017-11-16T11:03:04.885Z,11.20
2017-11-16T11:05:32.441Z,11.20
2017-11-16T11:07:59.984Z,11.30
2017-11-16T11:10:27.555Z,11.20
2017-11-16T11:12:55.117Z,11.40
2017-11-16T11:15:22.677Z,11.70
2017-11-16T11:17:50.236Z,12.00
2017-11-16T11:20:17.800Z,12.30
2017-11-16T11:22:45.359Z,12.20
2017-11-16T11:25:12.950Z,12.40
2017-11-16T11:27:41.279Z,12.10
2017-11-16T11:30:08.852Z,12.00
2017-11-16T11:32:36.411Z,12.00
2017-11-16T11:35:03.950Z,11.50
2017-11-16T11:37:31.532Z,11.20
2017-11-16T11:39:59.072Z,11.10
2017-11-16T11:42:26.759Z,11.20
2017-11-16T11:44:54.298Z,11.40
2017-11-16T11:47:21.877Z,11.40
2017-11-16T11:49:50.935Z,11.60
2017-11-16T11:52:19.379Z,11.60
2017-11-16T11:54:47.709Z,11.40
2017-11-16T11:57:15.263Z,11.40
2017-11-16T11:59:42.817Z,11.50
2017-11-16T12:02:10.356Z,11.30
2017-11-16T12:04:37.927Z,11.20
2017-11-16T12:07:05.503Z,11.00
2017-11-16T12:09:33.051Z,10.90
2017-11-16T12:12:00.619Z,10.70
2017-11-16T12:14:28.186Z,10.60
2017-11-16T12:16:55.763Z,10.70
2017-11-16T12:19:23.325Z,10.40
2017-11-16T12:21:50.875Z,10.20
2017-11-16T12:24:18.449Z,10.10
2017-11-16T12:26:45.999Z,10.00
2017-11-16T12:29:13.570Z,10.00
2017-11-16T12:31:41.104Z,9.90
2017-11-16T12:34:08.667Z,9.80
2017-11-16T12:36:36.209Z,9.90
2017-11-16T12:39:03.741Z,10.00
2017-11-16T12:41:31.331Z,10.00
2017-11-16T12:43:58.899Z,10.10
2017-11-16T12:46:26.451Z,10.00
2017-11-16T12:48:54.025Z,10.20
2017-11-16T12:51:21.582Z,10.30
2017-11-16T12:53:49.136Z,10.40
2017-11-16T12:56:16.697Z,10.40
2017-11-16T12:58:44.232Z,10.40
2017-11-16T13:01:11.791Z,10.60
2017-11-16T13:03:39.339Z,10.70
2017-11-16T13:06:06.915Z,10.60
2017-11-16T13:08:34.455Z,10.50
2017-11-16T13:11:02.023Z,10.50
2017-11-16T13:13:29.586Z,10.70
2017-11-16T13:15:57.112Z,10.80
2017-11-16T13:18:25.444Z,11.20
2017-11-16T13:20:53.006Z,11.20
2017-11-16T13:23:20.568Z,11.80
2017-11-16T13:25:48.141Z,13.30
2017-11-16T13:28:15.713Z,16.30
2017-11-16T13:30:43.264Z,17.90
2017-11-16T13:33:10.815Z,18.80
2017-11-16T13:35:38.374Z,17.60
2017-11-16T13:38:05.951Z,18.40
2017-11-16T13:40:35.008Z,18.80
2017-11-16T13:43:02.593Z,18.90
2017-11-16T13:45:30.934Z,16.00
2017-11-16T13:47:58.485Z,15.90
2017-11-16T13:50:26.069Z,14.60
2017-11-16T13:52:53.619Z,13.60
2017-11-16T13:55:21.185Z,12.60
2017-11-16T13:57:48.732Z,12.10
2017-11-16T14:00:16.264Z,11.90
2017-11-16T14:02:43.839Z,11.40
2017-11-16T14:05:11.388Z,11.20
2017-11-16T14:07:38.952Z,10.80
2017-11-16T14:10:06.485Z,10.70
2017-11-16T14:12:34.789Z,10.50
2017-11-16T14:15:02.352Z,10.50
2017-11-16T14:17:29.907Z,10.50
2017-11-16T14:19:57.496Z,10.50
2017-11-16T14:22:25.149Z,10.60
2017-11-16T14:24:52.688Z,10.50
2017-11-16T14:27:20.371Z,10.40
2017-11-16T14:29:47.929Z,10.30
2017-11-16T14:32:15.517Z,10.20
2017-11-16T14:34:43.056Z,10.10
2017-11-16T14:37:10.617Z,9.90
2017-11-16T14:39:38.185Z,9.80
2017-11-16T14:42:05.760Z,9.80
2017-11-16T14:44:33.342Z,9.70
2017-11-16T14:47:01.664Z,9.40
2017-11-16T14:49:29.229Z,9.40
2017-11-16T14:51:56.785Z,9.30
2017-11-16T14:54:24.332Z,9.30
2017-11-16T14:56:52.023Z,9.20
2017-11-16T14:59:19.557Z,9.20
2017-11-16T15:01:47.124Z,9.10
2017-11-16T15:04:14.689Z,9.10
2017-11-16T15:06:42.240Z,9.00
2017-11-16T15:09:09.818Z,9.00
2017-11-16T15:11:37.381Z,8.80
2017-11-16T15:14:04.957Z,8.60
2017-11-16T15:16:32.507Z,8.50
2017-11-16T15:19:00.083Z,8.40
2017-11-16T15:21:27.665Z,8.30
2017-11-16T15:23:55.354Z,8.30
2017-11-16T15:26:22.917Z,8.40
2017-11-16T15:28:50.676Z,8.40
2017-11-16T15:31:18.227Z,8.30
2017-11-16T15:33:45.807Z,8.30
2017-11-16T15:36:13.569Z,8.30
2017-11-16T15:38:41.132Z,8.20
2017-11-16T15:41:08.699Z,8.20
2017-11-16T15:43:36.263Z,8.10
2017-11-16T15:46:03.839Z,8.20
2017-11-16T15:48:31.376Z,8.10
2017-11-16T15:50:58.921Z,8.10
2017-11-16T15:53:26.491Z,8.00
2017-11-16T15:55:54.135Z,7.90
2017-11-16T15:58:21.710Z,7.90
2017-11-16T16:00:49.268Z,7.80
2017-11-16T16:03:16.839Z,7.70
2017-11-16T16:05:44.403Z,7.70
2017-11-16T16:08:11.951Z,7.70
2017-11-16T16:10:39.511Z,7.80
2017-11-16T16:13:07.058Z,7.80
2017-11-16T16:15:34.634Z,7.90
2017-11-16T16:18:02.223Z,7.90
2017-11-16T16:20:30.586Z,7.90
2017-11-16T16:22:58.162Z,7.80
2017-11-16T16:25:26.517Z,7.90
2017-11-16T16:27:55.627Z,7.90
2017-11-16T16:30:23.943Z,7.90
2017-11-16T16:32:51.500Z,7.90
2017-11-16T16:35:19.074Z,7.90
2017-11-16T16:37:46.787Z,7.90
2017-11-16T16:40:15.140Z,8.00
2017-11-16T16:42:42.677Z,7.90
2017-11-16T16:45:10.337Z,7.90
2017-11-16T16:47:37.913Z,7.90
2017-11-16T16:50:05.496Z,8.00
2017-11-16T16:52:33.814Z,7.90
2017-11-16T16:55:01.389Z,7.90
2017-11-16T16:57:28.942Z,7.90
2017-11-16T16:59:56.503Z,7.90
2017-11-16T17:02:24.050Z,7.90
2017-11-16T17:04:51.617Z,7.90
2017-11-16T17:07:19.163Z,7.90
2017-11-16T17:09:46.701Z,7.90
2017-11-16T17:12:15.021Z,7.90
2017-11-16T17:14:42.588Z,7.90
2017-11-16T17:17:10.135Z,8.00
2017-11-16T17:19:37.698Z,8.00
2017-11-16T17:22:05.362Z,8.00
2017-11-16T17:24:32.927Z,8.00
2017-11-16T17:27:00.582Z,8.00
2017-11-16T17:29:28.170Z,8.00
2017-11-16T17:31:55.765Z,8.10
2017-11-16T17:34:23.339Z,8.10
2017-11-16T17:36:50.887Z,8.10
2017-11-16T17:39:18.482Z,8.10
2017-11-16T17:41:46.053Z,8.10
2017-11-16T17:44:13.593Z,8.10
2017-11-16T17:46:41.166Z,8.10
2017-11-16T17:49:08.709Z,8.10
2017-11-16T17:51:36.289Z,8.10
2017-11-16T17:54:03.837Z,8.10
2017-11-16T17:56:31.369Z,8.10
2017-11-16T17:58:58.917Z,8.10
2017-11-16T18:01:27.228Z,8.20
2017-11-16T18:03:54.789Z,8.10
2017-11-16T18:06:22.339Z,8.10
2017-11-16T18:08:49.868Z,8.10
2017-11-16T18:11:18.212Z,8.10
2017-11-16T18:13:45.748Z,8.10
2017-11-16T18:16:13.327Z,8.10
2017-11-16T18:18:40.878Z,8.10
2017-11-16T18:21:08.422Z,8.10
2017-11-16T18:23:35.991Z,8.10
2017-11-16T18:26:03.544Z,8.10
2017-11-16T18:28:31.113Z,8.10
2017-11-16T18:30:58.663Z,8.10
2017-11-16T18:33:26.207Z,8.10
2017-11-16T18:35:53.776Z,8.20
2017-11-16T18:38:21.312Z,8.20
2017-11-16T18:40:48.871Z,8.20
2017-11-16T18:43:16.429Z,8.20
2017-11-16T18:45:43.988Z,8.20
2017-11-16T18:48:11.558Z,8.20
2017-11-16T18:50:39.113Z,8.20
2017-11-16T18:53:06.702Z,8.20
2017-11-16T18:55:34.250Z,8.20
2017-11-16T18:58:01.820Z,8.20
2017-11-16T19:00:29.376Z,8.20
2017-11-16T19:02:56.933Z,8.20
2017-11-16T19:05:24.493Z,8.20
2017-11-16T19:07:52.050Z,8.20
2017-11-16T19:10:19.627Z,8.20
2017-11-16T19:12:47.180Z,8.20
2017-11-16T19:15:14.711Z,8.20
2017-11-16T19:17:42.296Z,8.20
2017-11-16T19:20:09.847Z,8.20
2017-11-16T19:22:37.442Z,8.30
2017-11-16T19:25:05.773Z,8.20
2017-11-16T19:27:33.309Z,8.20
2017-11-16T19:30:00.907Z,8.20
2017-11-16T19:32:28.477Z,8.20
2017-11-16T19:34:56.071Z,8.30
2017-11-16T19:37:24.386Z,8.30
2017-11-16T19:39:51.953Z,8.30
2017-11-16T19:42:19.506Z,8.30
2017-11-16T19:44:47.052Z,8.30
2017-11-16T19:47:14.653Z,8.30
2017-11-16T19:49:42.496Z,8.30
2017-11-16T19:52:10.979Z,8.30
2017-11-16T19:54:38.536Z,8.30
2017-11-16T19:57:06.088Z,8.30
2017-11-16T19:59:33.647Z,8.30
2017-11-16T20:02:01.218Z,8.30
2017-11-16T20:04:28.805Z,8.30
2017-11-16T20:06:56.359Z,8.30
2017-11-16T20:09:23.897Z,8.20
2017-11-16T20:11:51.445Z,8.30
2017-11-16T20:14:19.004Z,8.20
2017-11-16T20:16:46.576Z,8.20
2017-11-16T20:19:14.138Z,8.30
2017-11-16T20:21:41.673Z,8.30
2017-11-16T20:24:09.244Z,8.30
2017-11-16T20:26:36.799Z,8.30
2017-11-16T20:29:04.376Z,8.30
2017-11-16T20:31:31.908Z,8.30
2017-11-16T20:33:59.455Z,8.30
2017-11-16T20:36:27.016Z,8.30
2017-11-16T20:38:58.547Z,8.30
2017-11-16T20:41:45.754Z,8.30
2017-11-16T20:44:23.215Z,8.30
2017-11-16T20:50:08.190Z,8.30
2017-11-16T20:52:36.724Z,8.30
2017-11-16T20:55:05.046Z,8.20
2017-11-16T20:57:32.612Z,8.20
2017-11-16T21:00:00.268Z,8.20
2017-11-16T21:02:27.828Z,8.20
2017-11-16T21:04:55.383Z,8.30
2017-11-16T21:07:22.951Z,8.30
2017-11-16T21:09:50.607Z,8.20
2017-11-16T21:12:18.140Z,8.20
2017-11-16T21:14:45.720Z,8.20
2017-11-16T21:17:13.289Z,8.30
2017-11-16T21:19:40.897Z,8.30
2017-11-16T21:22:09.207Z,8.40
2017-11-16T21:24:36.778Z,8.30
2017-11-16T21:27:04.336Z,8.40
2017-11-16T21:29:31.864Z,8.30
2017-11-16T21:32:00.211Z,8.40
2017-11-16T21:34:27.759Z,8.40
2017-11-16T21:36:55.310Z,8.40
2017-11-16T21:39:22.856Z,8.40
2017-11-16T21:41:50.514Z,8.40
2017-11-16T21:44:18.093Z,8.40
2017-11-16T21:46:45.635Z,8.40
2017-11-16T21:49:13.214Z,8.40
2017-11-16T21:51:40.759Z,8.40
2017-11-16T21:54:08.289Z,8.40
2017-11-16T21:56:35.870Z,8.40
2017-11-16T21:59:03.429Z,8.40
2017-11-16T22:01:31.031Z,8.40
2017-11-16T22:03:59.369Z,8.40
2017-11-16T22:06:26.961Z,8.40
2017-11-16T22:08:55.314Z,8.40
2017-11-16T22:11:22.859Z,8.40
2017-11-16T22:13:50.445Z,8.40
2017-11-16T22:16:17.977Z,8.40
2017-11-16T22:18:45.643Z,8.40
2017-11-16T22:21:13.206Z,8.40
2017-11-16T22:23:40.792Z,8.40
2017-11-16T22:26:08.381Z,8.40
2017-11-16T22:28:35.943Z,8.40
2017-11-16T22:31:04.287Z,8.40
2017-11-16T22:33:31.845Z,8.40
2017-11-16T22:35:59.381Z,8.40
2017-11-16T22:38:26.969Z,8.40
2017-11-16T22:40:54.519Z,8.40
2017-11-16T22:43:22.093Z,8.40
2017-11-16T22:45:49.652Z,8.40
2017-11-16T22:48:17.203Z,8.40
2017-11-16T22:50:44.771Z,8.40
2017-11-16T22:53:12.337Z,8.40
2017-11-16T22:55:39.907Z,8.40
2017-11-16T22:58:08.238Z,8.40
2017-11-16T23:00:35.818Z,8.40
2017-11-16T23:03:04.187Z,8.40
2017-11-16T23:05:31.739Z,8.40
2017-11-16T23:07:59.307Z,8.50
2017-11-16T23:10:26.861Z,8.50
2017-11-16T23:12:54.441Z,8.40
2017-11-16T23:15:21.976Z,8.40
2017-11-16T23:17:49.543Z,8.40
2017-11-16T23:20:17.104Z,8.40
2017-11-16T23:22:44.687Z,8.40
2017-11-16T23:25:12.238Z,8.30
2017-11-16T23:27:39.786Z,8.40
2017-11-16T23:30:07.363Z,8.30
2017-11-16T23:32:35.793Z,8.30
2017-11-16T23:35:03.384Z,8.30
2017-11-16T23:37:30.936Z,8.30
2017-11-16T23:39:58.494Z,8.30
2017-11-16T23:42:26.077Z,8.30
2017-11-16T23:44:54.486Z,8.40
2017-11-16T23:47:22.054Z,8.40
2017-11-16T23:49:49.611Z,8.30
2017-11-16T23:52:17.187Z,8.30
2017-11-16T23:54:44.742Z,8.30
2017-11-16T23:57:12.318Z,8.40
2017-11-16T23:59:40.125Z,8.30
